createdAt,value
2024-03-09T00:00:24.639Z,46.70
2024-03-09T00:02:51.862Z,46.60
2024-03-09T00:05:20.467Z,46.60
2024-03-09T00:07:47.429Z,46.60
2024-03-09T00:10:15.971Z,46.60
2024-03-09T00:12:48.711Z,46.70
2024-03-09T00:15:16.499Z,46.60
2024-03-09T00:17:43.724Z,46.70
2024-03-09T00:20:17.198Z,46.70
2024-03-09T00:22:46.845Z,46.70
2024-03-09T00:25:13.470Z,46.70
2024-03-09T00:27:40.886Z,46.70
2024-03-09T00:30:11.505Z,46.70
2024-03-09T00:32:39.365Z,46.80
2024-03-09T00:35:09.047Z,46.80
2024-03-09T00:37:36.818Z,46.70
2024-03-09T00:40:06.478Z,46.60
2024-03-09T00:42:34.059Z,46.70
2024-03-09T00:45:04.319Z,46.60
2024-03-09T00:47:37.078Z,46.70
2024-03-09T00:50:06.061Z,46.60
2024-03-09T00:52:32.900Z,46.60
2024-03-09T00:54:59.559Z,46.50
2024-03-09T00:57:27.477Z,46.50
2024-03-09T00:59:54.178Z,46.50
2024-03-09T01:02:20.823Z,46.50
2024-03-09T01:04:47.596Z,46.50
2024-03-09T01:07:17.113Z,46.50
2024-03-09T01:09:45.120Z,46.50
2024-03-09T01:12:11.958Z,46.50
2024-03-09T01:14:38.587Z,46.40
2024-03-09T01:17:05.393Z,46.40
2024-03-09T01:19:32.057Z,47.10
2024-03-09T01:22:06.743Z,46.40
2024-03-09T01:24:33.750Z,46.40
2024-03-09T01:27:00.383Z,46.30
2024-03-09T01:29:27.053Z,46.30
2024-03-09T01:31:53.886Z,46.30
2024-03-09T01:34:21.324Z,46.30
2024-03-09T01:36:47.975Z,46.30
2024-03-09T01:39:15.324Z,46.40
2024-03-09T01:41:41.941Z,46.30
2024-03-09T01:44:10.834Z,46.30
2024-03-09T01:46:37.558Z,46.30
2024-03-09T01:49:04.221Z,46.30
2024-03-09T01:51:30.818Z,46.20
2024-03-09T01:53:57.499Z,46.30
2024-03-09T01:56:24.119Z,46.20
2024-03-09T01:58:50.850Z,46.30
2024-03-09T02:01:37.852Z,46.30
2024-03-09T02:04:05.995Z,46.20
2024-03-09T02:06:33.994Z,46.30
2024-03-09T02:09:00.725Z,46.30
2024-03-09T02:11:27.443Z,46.30
2024-03-09T02:13:54.189Z,46.20
2024-03-09T02:16:20.855Z,46.30
2024-03-09T02:18:49.709Z,46.30
2024-03-09T02:21:16.715Z,46.20
2024-03-09T02:23:43.558Z,46.30
2024-03-09T02:26:10.256Z,46.20
2024-03-09T02:28:36.936Z,46.20
2024-03-09T02:31:07.180Z,46.20
2024-03-09T02:33:34.360Z,46.20
2024-03-09T02:36:01.596Z,46.20
2024-03-09T02:38:28.221Z,46.10
2024-03-09T02:40:54.943Z,46.10
2024-03-09T02:43:24.276Z,46.10
2024-03-09T02:45:50.974Z,46.00
2024-03-09T02:48:17.696Z,46.10
2024-03-09T02:50:44.372Z,46.10
2024-03-09T02:53:11.588Z,46.10
2024-03-09T02:55:38.327Z,46.10
2024-03-09T02:58:05.070Z,46.10
2024-03-09T03:00:32.349Z,46.20
2024-03-09T03:03:17.729Z,46.10
2024-03-09T03:05:45.238Z,46.20
2024-03-09T03:08:13.297Z,46.10
2024-03-09T03:10:41.439Z,46.10
2024-03-09T03:13:08.252Z,46.10
2024-03-09T03:15:35.592Z,46.10
2024-03-09T03:18:02.259Z,46.10
2024-03-09T03:20:31.859Z,46.20
2024-03-09T03:23:01.004Z,46.00
2024-03-09T03:25:27.902Z,46.00
2024-03-09T03:27:55.783Z,46.60
2024-03-09T03:30:22.417Z,46.00
2024-03-09T03:32:52.029Z,46.00
2024-03-09T03:35:19.238Z,46.00
2024-03-09T03:37:47.262Z,46.10
2024-03-09T03:40:16.213Z,46.00
2024-03-09T03:42:42.854Z,46.00
2024-03-09T03:45:12.633Z,45.90
2024-03-09T03:47:39.901Z,46.00
2024-03-09T03:50:09.819Z,45.90
2024-03-09T03:52:39.977Z,46.00
2024-03-09T03:55:12.692Z,46.00
2024-03-09T03:57:44.097Z,46.00
2024-03-09T04:00:11.028Z,46.00
2024-03-09T04:02:41.215Z,46.00
2024-03-09T04:05:09.089Z,46.00
2024-03-09T04:07:36.195Z,46.00
2024-03-09T04:10:02.893Z,46.00
2024-03-09T04:12:30.660Z,46.50
2024-03-09T04:14:58.387Z,46.00
2024-03-09T04:17:25.041Z,46.00
2024-03-09T04:19:51.698Z,46.00
2024-03-09T04:22:19.464Z,46.00
2024-03-09T04:24:46.189Z,46.00
2024-03-09T04:27:12.847Z,45.90
2024-03-09T04:29:39.502Z,46.00
2024-03-09T04:32:08.823Z,45.90
2024-03-09T04:34:39.803Z,45.90
2024-03-09T04:37:06.522Z,45.90
2024-03-09T04:39:39.649Z,45.70
2024-03-09T04:42:06.301Z,45.90
2024-03-09T04:44:34.000Z,45.70
2024-03-09T04:47:00.724Z,45.80
2024-03-09T04:49:28.708Z,45.90
2024-03-09T04:51:57.727Z,45.80
2024-03-09T04:54:24.328Z,45.80
2024-03-09T04:56:50.953Z,45.60
2024-03-09T04:59:17.717Z,45.80
2024-03-09T05:01:47.335Z,45.80
2024-03-09T05:04:15.285Z,45.70
2024-03-09T05:06:42.954Z,45.70
2024-03-09T05:09:16.112Z,45.70
2024-03-09T05:11:42.995Z,45.80
2024-03-09T05:14:09.855Z,45.80
2024-03-09T05:16:36.521Z,45.80
2024-03-09T05:19:03.480Z,45.80
2024-03-09T05:21:35.163Z,45.70
2024-03-09T05:24:01.987Z,45.70
2024-03-09T05:26:33.430Z,45.70
2024-03-09T05:29:00.190Z,45.70
2024-03-09T05:31:27.618Z,45.80
2024-03-09T05:33:54.835Z,45.70
2024-03-09T05:36:21.432Z,45.80
2024-03-09T05:38:51.198Z,45.80
2024-03-09T05:41:17.944Z,45.80
2024-03-09T05:43:45.827Z,45.80
2024-03-09T05:46:14.038Z,45.70
2024-03-09T05:48:40.652Z,45.80
2024-03-09T05:51:10.900Z,45.60
2024-03-09T05:53:39.081Z,45.70
2024-03-09T05:56:06.690Z,45.70
2024-03-09T05:58:33.519Z,45.60
2024-03-09T06:01:00.330Z,45.60
2024-03-09T06:03:27.191Z,45.50
2024-03-09T06:05:54.081Z,45.50
2024-03-09T06:08:20.896Z,45.60
2024-03-09T06:10:58.536Z,45.50
2024-03-09T06:13:27.978Z,45.50
2024-03-09T06:15:56.139Z,45.50
2024-03-09T06:18:24.412Z,46.10
2024-03-09T06:20:52.299Z,45.60
2024-03-09T06:23:20.751Z,45.50
2024-03-09T06:25:48.146Z,46.00
2024-03-09T06:28:15.830Z,45.90
2024-03-09T06:30:42.708Z,45.90
2024-03-09T06:33:10.717Z,46.00
2024-03-09T06:35:37.466Z,45.90
2024-03-09T06:38:09.224Z,45.90
2024-03-09T06:40:38.273Z,45.90
2024-03-09T06:43:08.735Z,45.90
2024-03-09T06:45:35.939Z,46.00
2024-03-09T06:48:04.728Z,46.00
2024-03-09T06:50:35.165Z,46.10
2024-03-09T06:53:02.224Z,46.00
2024-03-09T06:55:30.431Z,46.10
2024-03-09T06:57:58.011Z,46.50
2024-03-09T07:00:29.534Z,46.30
2024-03-09T07:03:08.652Z,46.40
2024-03-09T07:05:36.509Z,46.40
2024-03-09T07:08:04.655Z,46.30
2024-03-09T07:10:33.421Z,46.00
2024-03-09T07:13:00.309Z,46.10
2024-03-09T07:15:29.966Z,46.10
2024-03-09T07:17:56.736Z,46.10
2024-03-09T07:20:24.781Z,46.20
2024-03-09T07:22:51.871Z,46.30
2024-03-09T07:25:24.347Z,46.20
2024-03-09T07:27:51.310Z,46.20
2024-03-09T07:30:19.685Z,46.20
2024-03-09T07:32:49.757Z,46.20
2024-03-09T07:35:17.295Z,46.30
2024-03-09T07:37:44.170Z,46.30
2024-03-09T07:40:14.333Z,46.20
2024-03-09T07:42:41.277Z,46.50
2024-03-09T07:45:08.328Z,46.50
2024-03-09T07:47:35.499Z,46.50
2024-03-09T07:50:02.471Z,46.50
2024-03-09T07:52:29.165Z,46.50
2024-03-09T07:54:57.469Z,46.50
2024-03-09T07:57:24.202Z,46.50
2024-03-09T07:59:50.896Z,47.10
2024-03-09T08:02:18.740Z,46.60
2024-03-09T08:04:45.499Z,46.60
2024-03-09T08:07:13.026Z,46.60
2024-03-09T08:09:39.848Z,46.70
2024-03-09T08:12:06.570Z,46.80
2024-03-09T08:14:35.117Z,46.70
2024-03-09T08:17:02.131Z,46.70
2024-03-09T08:19:28.826Z,46.70
2024-03-09T08:21:55.476Z,46.70
2024-03-09T08:24:22.887Z,46.70
2024-03-09T08:26:49.546Z,46.40
2024-03-09T08:29:17.357Z,46.60
2024-03-09T08:31:44.214Z,46.30
2024-03-09T08:34:11.039Z,46.50
2024-03-09T08:36:37.667Z,46.80
2024-03-09T08:39:04.389Z,46.90
2024-03-09T08:41:33.790Z,46.80
2024-03-09T08:44:00.502Z,46.80
2024-03-09T08:46:27.540Z,46.70
2024-03-09T08:48:54.171Z,46.70
2024-03-09T08:51:21.496Z,46.60
2024-03-09T08:53:48.201Z,46.60
2024-03-09T08:56:18.369Z,46.50
2024-03-09T08:58:45.792Z,46.60
2024-03-09T09:01:12.478Z,46.50
2024-03-09T09:03:39.784Z,46.50
2024-03-09T09:06:10.084Z,46.40
2024-03-09T09:08:38.028Z,46.30
2024-03-09T09:11:05.836Z,46.30
2024-03-09T09:13:32.870Z,46.20
2024-03-09T09:15:59.514Z,46.00
2024-03-09T09:18:26.170Z,46.00
2024-03-09T09:20:53.700Z,46.40
2024-03-09T09:23:21.999Z,46.30
2024-03-09T09:25:48.820Z,46.40
2024-03-09T09:28:17.480Z,46.50
2024-03-09T09:30:45.314Z,46.50
2024-03-09T09:33:15.415Z,46.50
2024-03-09T09:35:42.381Z,46.50
2024-03-09T09:38:09.734Z,46.60
2024-03-09T09:40:36.527Z,46.60
2024-03-09T09:43:03.729Z,46.70
2024-03-09T09:45:34.821Z,46.70
2024-03-09T09:48:03.065Z,46.70
2024-03-09T09:50:35.579Z,46.70
2024-03-09T09:53:02.273Z,46.80
2024-03-09T09:55:28.975Z,46.70
2024-03-09T09:57:55.572Z,46.70
2024-03-09T10:00:24.948Z,46.80
2024-03-09T10:02:54.778Z,46.80
2024-03-09T10:05:22.625Z,46.80
2024-03-09T10:08:00.074Z,46.60
2024-03-09T10:10:32.047Z,47.00
2024-03-09T10:13:06.049Z,47.00
2024-03-09T10:15:35.726Z,47.00
2024-03-09T10:18:04.136Z,47.10
2024-03-09T10:20:36.810Z,47.10
2024-03-09T10:23:05.947Z,47.10
2024-03-09T10:25:36.772Z,47.20
2024-03-09T10:28:04.142Z,47.20
2024-03-09T10:30:30.861Z,47.20
2024-03-09T10:32:57.651Z,47.20
2024-03-09T10:35:27.225Z,47.10
2024-03-09T10:37:57.164Z,47.60
2024-03-09T10:40:24.368Z,46.80
2024-03-09T10:42:51.811Z,47.00
2024-03-09T10:45:20.033Z,47.10
2024-03-09T10:47:49.910Z,47.00
2024-03-09T10:50:18.118Z,47.10
2024-03-09T10:52:46.685Z,46.90
2024-03-09T10:55:13.449Z,47.00
2024-03-09T10:57:40.944Z,47.10
2024-03-09T11:00:07.788Z,47.00
2024-03-09T11:02:36.525Z,47.10
2024-03-09T11:05:06.531Z,47.10
2024-03-09T11:07:33.412Z,47.20
2024-03-09T11:10:00.268Z,47.30
2024-03-09T11:12:26.900Z,47.20
2024-03-09T11:14:53.807Z,47.30
2024-03-09T11:17:25.234Z,47.20
2024-03-09T11:19:57.265Z,47.20
2024-03-09T11:22:42.521Z,47.20
2024-03-09T11:25:12.189Z,47.20
2024-03-09T11:27:46.368Z,47.30
2024-03-09T11:30:14.076Z,47.20
2024-03-09T11:32:42.720Z,47.40
2024-03-09T11:35:29.142Z,47.30
2024-03-09T11:37:57.651Z,47.30
2024-03-09T11:40:24.903Z,47.30
2024-03-09T11:43:01.629Z,47.40
2024-03-09T11:45:30.919Z,47.40
2024-03-09T11:47:58.086Z,47.30
2024-03-09T11:50:25.952Z,47.50
2024-03-09T11:52:54.689Z,46.90
2024-03-09T11:55:22.025Z,47.10
2024-03-09T11:57:52.254Z,47.30
2024-03-09T12:00:19.153Z,47.40
2024-03-09T12:02:45.801Z,47.50
2024-03-09T12:05:18.504Z,47.40
2024-03-09T12:07:46.875Z,47.40
2024-03-09T12:10:16.987Z,47.40
2024-03-09T12:12:44.615Z,47.40
2024-03-09T12:15:11.971Z,47.60
2024-03-09T12:17:43.147Z,47.30
2024-03-09T12:20:10.186Z,47.40
2024-03-09T12:22:37.183Z,47.30
2024-03-09T12:25:05.181Z,47.30
2024-03-09T12:27:32.138Z,47.20
2024-03-09T12:29:59.143Z,47.30
2024-03-09T12:32:32.560Z,47.40
2024-03-09T12:35:01.791Z,47.20
2024-03-09T12:37:28.718Z,47.00
2024-03-09T12:40:11.637Z,47.20
2024-03-09T12:42:43.271Z,47.30
2024-03-09T12:45:18.700Z,47.40
2024-03-09T12:47:47.337Z,47.10
2024-03-09T12:50:20.391Z,47.40
2024-03-09T12:52:49.702Z,47.50
2024-03-09T12:55:26.098Z,47.40
2024-03-09T12:57:54.317Z,47.50
2024-03-09T13:00:21.443Z,47.50
2024-03-09T13:02:50.949Z,47.30
2024-03-09T13:05:20.079Z,47.50
2024-03-09T13:07:47.878Z,47.60
2024-03-09T13:10:20.488Z,47.70
2024-03-09T13:12:48.742Z,47.70
2024-03-09T13:15:21.510Z,47.70
2024-03-09T13:17:49.255Z,47.70
2024-03-09T13:20:19.294Z,47.60
2024-03-09T13:22:46.440Z,47.70
2024-03-09T13:25:13.350Z,47.60
2024-03-09T13:27:40.310Z,47.60
2024-03-09T13:30:19.100Z,47.60
2024-03-09T13:32:45.931Z,47.60
2024-03-09T13:35:15.567Z,47.60
2024-03-09T13:37:42.411Z,47.60
2024-03-09T13:40:09.646Z,47.60
2024-03-09T13:42:36.461Z,47.60
2024-03-09T13:45:05.112Z,47.60
2024-03-09T13:47:31.943Z,47.60
2024-03-09T13:49:58.632Z,47.50
2024-03-09T13:52:25.598Z,47.60
2024-03-09T13:54:53.040Z,47.60
2024-03-09T13:57:19.671Z,47.60
2024-03-09T13:59:46.277Z,47.60
2024-03-09T14:02:17.844Z,47.80
2024-03-09T14:04:44.915Z,47.70
2024-03-09T14:07:13.868Z,47.70
2024-03-09T14:09:49.754Z,47.70
2024-03-09T14:12:21.316Z,47.70
2024-03-09T14:14:55.239Z,47.70
2024-03-09T14:17:22.995Z,47.70
2024-03-09T14:19:52.103Z,47.70
2024-03-09T14:22:20.503Z,47.70
2024-03-09T14:24:48.383Z,47.70
2024-03-09T14:27:20.964Z,47.70
2024-03-09T14:29:50.552Z,47.70
2024-03-09T14:32:19.058Z,47.80
2024-03-09T14:34:46.681Z,47.20
2024-03-09T14:37:14.139Z,47.70
2024-03-09T14:39:41.128Z,48.00
2024-03-09T14:42:07.737Z,47.80
2024-03-09T14:44:34.452Z,47.90
2024-03-09T14:47:01.201Z,47.90
2024-03-09T14:49:27.888Z,47.90
2024-03-09T14:51:56.085Z,47.80
2024-03-09T14:54:24.185Z,47.70
2024-03-09T14:56:50.901Z,47.90
2024-03-09T14:59:17.627Z,47.80
2024-03-09T15:01:45.078Z,47.70
2024-03-09T15:04:15.892Z,47.80
2024-03-09T15:06:42.659Z,47.90
2024-03-09T15:09:14.177Z,47.80
2024-03-09T15:11:40.963Z,47.50
2024-03-09T15:14:07.714Z,47.60
2024-03-09T15:16:35.281Z,47.50
2024-03-09T15:19:01.968Z,47.10
2024-03-09T15:21:28.706Z,47.10
2024-03-09T15:23:55.952Z,46.40
2024-03-09T15:26:27.477Z,46.70
2024-03-09T15:28:57.272Z,46.80
2024-03-09T15:31:24.388Z,47.10
2024-03-09T15:33:54.372Z,47.20
2024-03-09T15:36:21.557Z,47.80
2024-03-09T15:38:49.139Z,47.80
2024-03-09T15:41:16.944Z,48.00
2024-03-09T15:43:44.378Z,48.30
2024-03-09T15:46:12.747Z,48.70
2024-03-09T15:48:39.567Z,49.00
2024-03-09T15:51:06.451Z,49.60
2024-03-09T15:53:35.685Z,49.80
2024-03-09T15:56:02.449Z,50.00
2024-03-09T15:58:29.455Z,50.20
2024-03-09T16:00:56.268Z,50.50
2024-03-09T16:03:24.139Z,50.50
2024-03-09T16:05:52.839Z,50.90
2024-03-09T16:08:23.325Z,50.90
2024-03-09T16:10:50.172Z,51.10
2024-03-09T16:13:17.782Z,51.80
2024-03-09T16:15:50.557Z,51.20
2024-03-09T16:18:17.951Z,51.10
2024-03-09T16:20:44.969Z,51.20
2024-03-09T16:23:16.903Z,51.30
2024-03-09T16:25:48.233Z,51.10
2024-03-09T16:28:18.003Z,51.30
2024-03-09T16:30:44.869Z,51.30
2024-03-09T16:33:18.195Z,51.50
2024-03-09T16:35:48.807Z,51.30
2024-03-09T16:38:21.668Z,51.20
2024-03-09T16:40:48.893Z,51.40
2024-03-09T16:43:15.668Z,51.80
2024-03-09T16:45:43.699Z,51.40
2024-03-09T16:48:12.986Z,51.90
2024-03-09T16:50:42.884Z,52.00
2024-03-09T16:53:12.834Z,52.10
2024-03-09T16:55:42.728Z,51.90
2024-03-09T16:58:09.595Z,52.10
2024-03-09T17:00:36.365Z,52.10
2024-03-09T17:03:06.188Z,52.10
2024-03-09T17:05:33.044Z,52.10
2024-03-09T17:08:02.691Z,52.30
2024-03-09T17:10:34.319Z,52.20
2024-03-09T17:13:00.963Z,52.20
2024-03-09T17:15:27.915Z,52.20
2024-03-09T17:17:54.923Z,52.40
2024-03-09T17:20:29.985Z,52.40
2024-03-09T17:23:03.210Z,52.50
2024-03-09T17:25:31.521Z,52.50
2024-03-09T17:27:58.142Z,52.70
2024-03-09T17:30:27.147Z,52.50
2024-03-09T17:32:58.414Z,52.50
2024-03-09T17:35:27.528Z,52.70
2024-03-09T17:37:54.303Z,52.90
2024-03-09T17:40:21.033Z,52.00
2024-03-09T17:42:48.096Z,51.70
2024-03-09T17:45:16.813Z,52.00
2024-03-09T17:47:45.173Z,52.40
2024-03-09T17:50:15.157Z,53.00
2024-03-09T17:52:46.022Z,52.70
2024-03-09T17:55:19.460Z,52.80
2024-03-09T17:57:46.755Z,53.00
2024-03-09T18:00:14.787Z,53.00
2024-03-09T18:02:41.678Z,53.10
2024-03-09T18:05:08.619Z,53.20
2024-03-09T18:07:35.418Z,52.70
2024-03-09T18:10:02.198Z,53.30
2024-03-09T18:12:31.033Z,53.30
2024-03-09T18:15:02.290Z,53.50
2024-03-09T18:17:29.477Z,53.60
2024-03-09T18:19:56.211Z,53.50
2024-03-09T18:22:23.689Z,52.50
2024-03-09T18:24:50.317Z,53.70
2024-03-09T18:27:16.981Z,53.70
2024-03-09T18:29:43.582Z,53.80
2024-03-09T18:32:11.460Z,53.70
2024-03-09T18:34:38.403Z,53.10
2024-03-09T18:37:07.167Z,53.70
2024-03-09T18:39:34.579Z,53.70
2024-03-09T18:42:01.172Z,53.70
2024-03-09T18:44:27.792Z,53.80
2024-03-09T18:46:54.629Z,53.70
2024-03-09T18:49:23.170Z,54.50
2024-03-09T18:51:49.833Z,54.20
2024-03-09T18:54:18.378Z,54.10
2024-03-09T18:56:44.992Z,53.90
2024-03-09T18:59:12.332Z,53.70
2024-03-09T19:01:39.026Z,53.60
2024-03-09T19:04:05.836Z,53.30
2024-03-09T19:06:32.815Z,52.80
2024-03-09T19:08:59.413Z,52.70
2024-03-09T19:11:26.400Z,52.60
2024-03-09T19:13:53.105Z,52.60
2024-03-09T19:16:20.091Z,53.00
2024-03-09T19:18:47.452Z,53.10
2024-03-09T19:21:14.077Z,53.30
2024-03-09T19:23:41.651Z,53.30
2024-03-09T19:26:08.824Z,53.40
2024-03-09T19:28:35.494Z,53.80
2024-03-09T19:31:02.219Z,53.50
2024-03-09T19:33:28.807Z,53.70
2024-03-09T19:35:58.100Z,54.00
2024-03-09T19:38:24.905Z,53.70
2024-03-09T19:40:51.609Z,53.70
2024-03-09T19:43:19.344Z,54.00
2024-03-09T19:45:46.038Z,53.90
2024-03-09T19:48:13.110Z,54.00
2024-03-09T19:50:39.902Z,54.30
2024-03-09T19:53:07.158Z,54.30
2024-03-09T19:55:34.020Z,54.30
2024-03-09T19:58:01.105Z,54.30
2024-03-09T20:00:32.649Z,54.30
2024-03-09T20:03:00.656Z,54.30
2024-03-09T20:05:29.858Z,54.30
2024-03-09T20:07:57.769Z,55.00
2024-03-09T20:10:25.270Z,54.30
2024-03-09T20:12:54.337Z,54.50
2024-03-09T20:15:21.962Z,54.20
2024-03-09T20:17:51.692Z,54.40
2024-03-09T20:20:19.571Z,54.50
2024-03-09T20:22:46.995Z,54.30
2024-03-09T20:25:13.662Z,54.60
2024-03-09T20:27:40.386Z,55.10
2024-03-09T20:30:10.705Z,54.70
2024-03-09T20:32:37.992Z,54.60
2024-03-09T20:35:05.749Z,54.50
2024-03-09T20:37:32.488Z,54.50
2024-03-09T20:39:59.169Z,54.60
2024-03-09T20:42:25.871Z,54.50
2024-03-09T20:44:52.547Z,54.50
2024-03-09T20:47:20.419Z,54.60
2024-03-09T20:49:47.095Z,54.40
2024-03-09T20:52:13.770Z,54.50
2024-03-09T20:54:40.402Z,54.60
2024-03-09T20:57:10.219Z,54.40
2024-03-09T20:59:37.063Z,54.50
2024-03-09T21:02:14.478Z,54.30
2024-03-09T21:04:41.649Z,54.40
2024-03-09T21:07:09.094Z,54.50
2024-03-09T21:09:36.115Z,54.40
2024-03-09T21:12:03.101Z,54.40
2024-03-09T21:14:30.003Z,54.40
2024-03-09T21:16:56.837Z,54.40
2024-03-09T21:19:23.870Z,54.40
2024-03-09T21:21:52.092Z,54.40
2024-03-09T21:24:19.647Z,54.40
2024-03-09T21:26:47.031Z,54.50
2024-03-09T21:29:13.818Z,54.50
2024-03-09T21:31:40.517Z,54.50
2024-03-09T21:34:07.231Z,54.50
2024-03-09T21:36:36.192Z,54.50
2024-03-09T21:39:04.781Z,54.70
2024-03-09T21:41:32.051Z,54.60
2024-03-09T21:43:59.423Z,54.50
2024-03-09T21:46:26.201Z,54.70
2024-03-09T21:48:53.723Z,54.70
2024-03-09T21:51:20.396Z,54.50
2024-03-09T21:53:47.779Z,54.50
2024-03-09T21:56:14.430Z,54.50
2024-03-09T21:58:43.338Z,54.40
2024-03-09T22:01:10.349Z,54.40
2024-03-09T22:03:39.544Z,54.40
2024-03-09T22:06:07.393Z,54.40
2024-03-09T22:08:34.389Z,54.50
2024-03-09T22:11:01.061Z,54.40
2024-03-09T22:13:27.977Z,54.30
2024-03-09T22:15:54.575Z,54.40
2024-03-09T22:18:21.364Z,54.30
2024-03-09T22:20:51.172Z,54.30
2024-03-09T22:23:18.095Z,54.30
2024-03-09T22:25:45.496Z,54.20
2024-03-09T22:28:12.233Z,54.30
2024-03-09T22:30:39.054Z,54.30
2024-03-09T22:33:05.771Z,54.40
2024-03-09T22:35:33.493Z,54.50
2024-03-09T22:38:00.257Z,54.50
2024-03-09T22:40:26.902Z,54.50
2024-03-09T22:42:53.646Z,54.60
2024-03-09T22:45:24.761Z,54.50
2024-03-09T22:47:51.871Z,54.50
2024-03-09T22:50:21.105Z,54.60
2024-03-09T22:52:48.114Z,54.70
2024-03-09T22:55:14.826Z,54.90
2024-03-09T22:57:41.511Z,54.60
2024-03-09T23:00:25.975Z,54.60
2024-03-09T23:02:52.685Z,54.50
2024-03-09T23:05:19.428Z,54.70
2024-03-09T23:07:46.222Z,54.50
2024-03-09T23:10:14.157Z,54.40
2024-03-09T23:12:45.097Z,54.50
2024-03-09T23:15:16.461Z,54.50
2024-03-09T23:17:43.522Z,54.50
2024-03-09T23:20:13.940Z,54.50
2024-03-09T23:22:40.949Z,54.50
2024-03-09T23:25:13.575Z,54.50
2024-03-09T23:27:40.348Z,54.40
2024-03-09T23:30:07.483Z,54.60
2024-03-09T23:32:37.227Z,54.50
2024-03-09T23:35:04.032Z,54.60
2024-03-09T23:37:31.345Z,54.50
2024-03-09T23:39:58.009Z,54.50
2024-03-09T23:42:26.064Z,54.60
2024-03-09T23:44:53.167Z,54.60
2024-03-09T23:47:20.250Z,54.50
2024-03-09T23:49:47.990Z,54.50
2024-03-09T23:52:15.183Z,54.50
2024-03-09T23:54:45.070Z,54.60
2024-03-09T23:57:12.593Z,54.60
2024-03-09T23:59:39.872Z,54.50
